sensor_id;sensor_type;location;lat;lon;timestamp;temperature;humidity
44477;DHT22;30180;44.788;10.366;2022-11-20T00:01:21;18.60;70.30
44477;DHT22;30180;44.788;10.366;2022-11-20T00:03:50;18.60;70.30
44477;DHT22;30180;44.788;10.366;2022-11-20T00:06:20;18.60;70.30
44477;DHT22;30180;44.788;10.366;2022-11-20T00:08:49;18.60;70.30
44477;DHT22;30180;44.788;10.366;2022-11-20T00:11:19;18.60;70.30
44477;DHT22;30180;44.788;10.366;2022-11-20T00:13:50;18.60;70.30
44477;DHT22;30180;44.788;10.366;2022-11-20T00:16:20;18.60;70.30
44477;DHT22;30180;44.788;10.366;2022-11-20T00:18:49;18.60;70.30
44477;DHT22;30180;44.788;10.366;2022-11-20T00:21:20;18.50;70.90
44477;DHT22;30180;44.788;10.366;2022-11-20T00:23:49;18.50;70.30
44477;DHT22;30180;44.788;10.366;2022-11-20T00:26:21;18.50;70.30
44477;DHT22;30180;44.788;10.366;2022-11-20T00:28:51;18.60;70.30
44477;DHT22;30180;44.788;10.366;2022-11-20T00:31:20;18.50;70.30
44477;DHT22;30180;44.788;10.366;2022-11-20T00:33:49;18.60;70.30
44477;DHT22;30180;44.788;10.366;2022-11-20T00:36:20;18.50;70.30
44477;DHT22;30180;44.788;10.366;2022-11-20T00:38:51;18.50;70.30
44477;DHT22;30180;44.788;10.366;2022-11-20T00:41:20;18.50;70.30
44477;DHT22;30180;44.788;10.366;2022-11-20T00:43:48;18.50;70.30
44477;DHT22;30180;44.788;10.366;2022-11-20T00:46:18;18.50;70.30
44477;DHT22;30180;44.788;10.366;2022-11-20T00:48:47;18.50;70.30
44477;DHT22;30180;44.788;10.366;2022-11-20T00:51:17;18.50;70.30
44477;DHT22;30180;44.788;10.366;2022-11-20T00:53:47;18.50;70.30
44477;DHT22;30180;44.788;10.366;2022-11-20T00:56:17;18.50;70.30
44477;DHT22;30180;44.788;10.366;2022-11-20T00:58:47;18.50;70.30
44477;DHT22;30180;44.788;10.366;2022-11-20T01:01:18;18.50;70.30
44477;DHT22;30180;44.788;10.366;2022-11-20T01:03:48;18.50;70.30
44477;DHT22;30180;44.788;10.366;2022-11-20T01:06:17;18.50;70.30
44477;DHT22;30180;44.788;10.366;2022-11-20T01:08:48;18.50;70.30
44477;DHT22;30180;44.788;10.366;2022-11-20T01:11:18;18.50;70.30
44477;DHT22;30180;44.788;10.366;2022-11-20T01:13:47;18.50;70.30
44477;DHT22;30180;44.788;10.366;2022-11-20T01:16:17;18.50;70.30
44477;DHT22;30180;44.788;10.366;2022-11-20T01:18:48;18.50;70.30
44477;DHT22;30180;44.788;10.366;2022-11-20T01:21:17;18.50;70.30
44477;DHT22;30180;44.788;10.366;2022-11-20T01:23:48;18.50;70.40
44477;DHT22;30180;44.788;10.366;2022-11-20T01:26:19;18.50;70.30
44477;DHT22;30180;44.788;10.366;2022-11-20T01:28:48;18.50;70.30
44477;DHT22;30180;44.788;10.366;2022-11-20T01:31:18;18.40;70.30
44477;DHT22;30180;44.788;10.366;2022-11-20T01:33:48;18.40;70.30
44477;DHT22;30180;44.788;10.366;2022-11-20T01:36:18;18.50;70.40
44477;DHT22;30180;44.788;10.366;2022-11-20T01:38:48;18.40;70.30
44477;DHT22;30180;44.788;10.366;2022-11-20T01:41:19;18.40;70.30
44477;DHT22;30180;44.788;10.366;2022-11-20T01:44:02;18.50;70.30
44477;DHT22;30180;44.788;10.366;2022-11-20T01:46:31;18.40;70.30
44477;DHT22;30180;44.788;10.366;2022-11-20T01:49:02;18.40;70.30
44477;DHT22;30180;44.788;10.366;2022-11-20T01:51:34;18.40;70.30
44477;DHT22;30180;44.788;10.366;2022-11-20T01:54:06;18.40;70.30
44477;DHT22;30180;44.788;10.366;2022-11-20T01:56:38;18.40;70.30
44477;DHT22;30180;44.788;10.366;2022-11-20T01:59:08;18.40;70.30
44477;DHT22;30180;44.788;10.366;2022-11-20T02:01:38;18.40;70.30
44477;DHT22;30180;44.788;10.366;2022-11-20T02:04:07;18.40;70.30
44477;DHT22;30180;44.788;10.366;2022-11-20T02:06:40;18.40;70.40
44477;DHT22;30180;44.788;10.366;2022-11-20T02:09:10;18.40;70.30
44477;DHT22;30180;44.788;10.366;2022-11-20T02:11:39;18.40;70.40
44477;DHT22;30180;44.788;10.366;2022-11-20T02:14:08;18.40;70.40
44477;DHT22;30180;44.788;10.366;2022-11-20T02:16:37;18.40;70.30
44477;DHT22;30180;44.788;10.366;2022-11-20T02:19:17;18.40;70.30
44477;DHT22;30180;44.788;10.366;2022-11-20T02:21:55;18.40;70.40
44477;DHT22;30180;44.788;10.366;2022-11-20T02:24:27;18.40;70.40
44477;DHT22;30180;44.788;10.366;2022-11-20T02:26:58;18.40;70.40
44477;DHT22;30180;44.788;10.366;2022-11-20T02:29:32;18.40;70.40
44477;DHT22;30180;44.788;10.366;2022-11-20T02:32:02;18.40;70.40
44477;DHT22;30180;44.788;10.366;2022-11-20T02:34:30;18.40;70.40
44477;DHT22;30180;44.788;10.366;2022-11-20T02:36:59;18.40;70.40
44477;DHT22;30180;44.788;10.366;2022-11-20T02:39:29;18.40;70.40
44477;DHT22;30180;44.788;10.366;2022-11-20T02:41:57;18.40;70.40
44477;DHT22;30180;44.788;10.366;2022-11-20T02:44:25;18.40;70.40
44477;DHT22;30180;44.788;10.366;2022-11-20T02:46:56;18.40;70.40
44477;DHT22;30180;44.788;10.366;2022-11-20T02:49:24;18.40;70.40
44477;DHT22;30180;44.788;10.366;2022-11-20T02:51:53;18.40;70.40
44477;DHT22;30180;44.788;10.366;2022-11-20T02:54:21;18.40;70.30
44477;DHT22;30180;44.788;10.366;2022-11-20T02:56:51;18.40;70.30
44477;DHT22;30180;44.788;10.366;2022-11-20T02:59:19;18.40;70.40
44477;DHT22;30180;44.788;10.366;2022-11-20T03:01:48;18.40;70.40
44477;DHT22;30180;44.788;10.366;2022-11-20T03:04:16;18.30;70.30
44477;DHT22;30180;44.788;10.366;2022-11-20T03:06:44;18.40;70.40
44477;DHT22;30180;44.788;10.366;2022-11-20T03:09:13;18.40;70.40
44477;DHT22;30180;44.788;10.366;2022-11-20T03:11:41;18.40;70.40
44477;DHT22;30180;44.788;10.366;2022-11-20T03:14:10;18.40;70.40
44477;DHT22;30180;44.788;10.366;2022-11-20T03:16:38;18.30;70.30
44477;DHT22;30180;44.788;10.366;2022-11-20T03:19:07;18.30;70.30
44477;DHT22;30180;44.788;10.366;2022-11-20T03:21:35;18.30;70.30
44477;DHT22;30180;44.788;10.366;2022-11-20T03:24:04;18.30;70.30
44477;DHT22;30180;44.788;10.366;2022-11-20T03:26:32;18.40;70.40
44477;DHT22;30180;44.788;10.366;2022-11-20T03:29:02;18.30;70.30
44477;DHT22;30180;44.788;10.366;2022-11-20T03:31:34;18.30;70.30
44477;DHT22;30180;44.788;10.366;2022-11-20T03:34:03;18.40;70.40
44477;DHT22;30180;44.788;10.366;2022-11-20T03:36:32;18.30;70.30
44477;DHT22;30180;44.788;10.366;2022-11-20T03:39:00;18.30;70.30
44477;DHT22;30180;44.788;10.366;2022-11-20T03:41:29;18.30;70.30
44477;DHT22;30180;44.788;10.366;2022-11-20T03:43:59;18.30;70.30
44477;DHT22;30180;44.788;10.366;2022-11-20T03:46:28;18.30;70.30
44477;DHT22;30180;44.788;10.366;2022-11-20T03:48:57;18.30;70.30
44477;DHT22;30180;44.788;10.366;2022-11-20T03:51:27;18.30;70.30
44477;DHT22;30180;44.788;10.366;2022-11-20T03:53:59;18.30;70.30
44477;DHT22;30180;44.788;10.366;2022-11-20T03:56:29;18.30;70.30
44477;DHT22;30180;44.788;10.366;2022-11-20T03:58:57;18.30;70.40
44477;DHT22;30180;44.788;10.366;2022-11-20T04:01:27;18.30;70.30
44477;DHT22;30180;44.788;10.366;2022-11-20T04:03:57;18.30;70.30
44477;DHT22;30180;44.788;10.366;2022-11-20T04:06:27;18.30;70.30
44477;DHT22;30180;44.788;10.366;2022-11-20T04:08:57;18.30;70.30
44477;DHT22;30180;44.788;10.366;2022-11-20T04:11:28;18.30;70.30
44477;DHT22;30180;44.788;10.366;2022-11-20T04:13:58;18.40;70.40
44477;DHT22;30180;44.788;10.366;2022-11-20T04:16:30;18.30;70.40
44477;DHT22;30180;44.788;10.366;2022-11-20T04:19:01;18.30;70.40
44477;DHT22;30180;44.788;10.366;2022-11-20T04:21:29;18.30;70.40
44477;DHT22;30180;44.788;10.366;2022-11-20T04:23:58;18.30;70.40
44477;DHT22;30180;44.788;10.366;2022-11-20T04:26:27;18.30;70.40
44477;DHT22;30180;44.788;10.366;2022-11-20T04:28:56;18.30;70.50
44477;DHT22;30180;44.788;10.366;2022-11-20T04:31:26;18.30;70.50
44477;DHT22;30180;44.788;10.366;2022-11-20T04:33:55;18.30;70.50
44477;DHT22;30180;44.788;10.366;2022-11-20T04:36:28;18.40;70.60
44477;DHT22;30180;44.788;10.366;2022-11-20T04:38:57;18.40;70.60
44477;DHT22;30180;44.788;10.366;2022-11-20T04:41:27;18.40;70.60
44477;DHT22;30180;44.788;10.366;2022-11-20T04:43:57;18.40;70.60
44477;DHT22;30180;44.788;10.366;2022-11-20T04:46:30;18.40;70.60
44477;DHT22;30180;44.788;10.366;2022-11-20T04:48:59;18.40;70.60
44477;DHT22;30180;44.788;10.366;2022-11-20T04:51:29;18.40;70.60
44477;DHT22;30180;44.788;10.366;2022-11-20T04:53:57;18.40;70.60
44477;DHT22;30180;44.788;10.366;2022-11-20T04:56:25;18.50;70.70
44477;DHT22;30180;44.788;10.366;2022-11-20T04:58:53;18.50;70.60
44477;DHT22;30180;44.788;10.366;2022-11-20T05:01:23;18.50;70.60
44477;DHT22;30180;44.788;10.366;2022-11-20T05:03:52;18.50;70.60
44477;DHT22;30180;44.788;10.366;2022-11-20T05:06:21;18.50;70.60
44477;DHT22;30180;44.788;10.366;2022-11-20T05:08:51;18.60;70.70
44477;DHT22;30180;44.788;10.366;2022-11-20T05:11:20;18.60;70.70
44477;DHT22;30180;44.788;10.366;2022-11-20T05:13:49;18.60;70.70
44477;DHT22;30180;44.788;10.366;2022-11-20T05:16:19;18.60;70.70
44477;DHT22;30180;44.788;10.366;2022-11-20T05:18:48;18.60;70.70
44477;DHT22;30180;44.788;10.366;2022-11-20T05:21:17;18.60;70.70
44477;DHT22;30180;44.788;10.366;2022-11-20T05:23:46;18.70;70.80
44477;DHT22;30180;44.788;10.366;2022-11-20T05:26:16;18.70;70.80
44477;DHT22;30180;44.788;10.366;2022-11-20T05:28:45;18.70;70.80
44477;DHT22;30180;44.788;10.366;2022-11-20T05:31:15;18.70;70.80
44477;DHT22;30180;44.788;10.366;2022-11-20T05:33:52;18.70;70.80
44477;DHT22;30180;44.788;10.366;2022-11-20T05:36:20;18.70;70.80
44477;DHT22;30180;44.788;10.366;2022-11-20T05:38:48;18.80;70.80
44477;DHT22;30180;44.788;10.366;2022-11-20T05:41:20;18.80;70.80
44477;DHT22;30180;44.788;10.366;2022-11-20T05:43:49;18.80;70.80
44477;DHT22;30180;44.788;10.366;2022-11-20T05:46:19;18.80;70.80
44477;DHT22;30180;44.788;10.366;2022-11-20T05:48:55;18.80;70.80
44477;DHT22;30180;44.788;10.366;2022-11-20T05:51:24;18.80;70.70
44477;DHT22;30180;44.788;10.366;2022-11-20T05:53:53;18.80;70.70
44477;DHT22;30180;44.788;10.366;2022-11-20T05:56:22;18.80;70.70
44477;DHT22;30180;44.788;10.366;2022-11-20T05:58:51;18.80;70.70
44477;DHT22;30180;44.788;10.366;2022-11-20T06:01:20;18.80;70.70
44477;DHT22;30180;44.788;10.366;2022-11-20T06:03:50;18.80;71.00
44477;DHT22;30180;44.788;10.366;2022-11-20T06:06:19;18.80;70.80
44477;DHT22;30180;44.788;10.366;2022-11-20T06:08:47;18.80;70.80
44477;DHT22;30180;44.788;10.366;2022-11-20T06:11:16;18.90;70.80
44477;DHT22;30180;44.788;10.366;2022-11-20T06:13:46;18.90;70.80
44477;DHT22;30180;44.788;10.366;2022-11-20T06:16:16;18.90;70.80
44477;DHT22;30180;44.788;10.366;2022-11-20T06:18:44;18.90;70.80
44477;DHT22;30180;44.788;10.366;2022-11-20T06:21:14;18.90;70.80
44477;DHT22;30180;44.788;10.366;2022-11-20T06:23:43;18.90;70.80
44477;DHT22;30180;44.788;10.366;2022-11-20T06:26:13;18.90;70.80
44477;DHT22;30180;44.788;10.366;2022-11-20T06:28:42;18.90;70.70
44477;DHT22;30180;44.788;10.366;2022-11-20T06:31:12;18.90;70.70
44477;DHT22;30180;44.788;10.366;2022-11-20T06:33:41;19.00;70.80
44477;DHT22;30180;44.788;10.366;2022-11-20T06:36:10;19.00;70.80
44477;DHT22;30180;44.788;10.366;2022-11-20T06:38:39;19.00;70.80
44477;DHT22;30180;44.788;10.366;2022-11-20T06:41:11;19.00;70.70
44477;DHT22;30180;44.788;10.366;2022-11-20T06:43:39;19.00;70.80
44477;DHT22;30180;44.788;10.366;2022-11-20T06:46:10;19.00;70.70
44477;DHT22;30180;44.788;10.366;2022-11-20T06:48:39;19.00;70.70
44477;DHT22;30180;44.788;10.366;2022-11-20T06:51:08;19.00;70.70
44477;DHT22;30180;44.788;10.366;2022-11-20T06:53:36;19.00;70.70
44477;DHT22;30180;44.788;10.366;2022-11-20T06:56:05;19.00;70.70
44477;DHT22;30180;44.788;10.366;2022-11-20T06:58:34;19.00;70.70
44477;DHT22;30180;44.788;10.366;2022-11-20T07:01:05;19.00;70.70
44477;DHT22;30180;44.788;10.366;2022-11-20T07:03:35;19.00;70.80
44477;DHT22;30180;44.788;10.366;2022-11-20T07:06:04;19.00;70.80
44477;DHT22;30180;44.788;10.366;2022-11-20T07:08:33;19.00;70.80
44477;DHT22;30180;44.788;10.366;2022-11-20T07:11:03;19.00;70.80
44477;DHT22;30180;44.788;10.366;2022-11-20T07:13:32;19.00;70.80
44477;DHT22;30180;44.788;10.366;2022-11-20T07:16:00;19.00;70.80
44477;DHT22;30180;44.788;10.366;2022-11-20T07:18:28;19.00;70.90
44477;DHT22;30180;44.788;10.366;2022-11-20T07:21:01;19.00;70.80
44477;DHT22;30180;44.788;10.366;2022-11-20T07:23:29;19.00;70.90
44477;DHT22;30180;44.788;10.366;2022-11-20T07:25:58;19.00;70.90
44477;DHT22;30180;44.788;10.366;2022-11-20T07:28:26;19.10;70.90
44477;DHT22;30180;44.788;10.366;2022-11-20T07:30:54;19.10;70.90
44477;DHT22;30180;44.788;10.366;2022-11-20T07:33:23;19.10;70.90
44477;DHT22;30180;44.788;10.366;2022-11-20T07:35:51;19.00;70.80
44477;DHT22;30180;44.788;10.366;2022-11-20T07:38:22;19.00;70.80
44477;DHT22;30180;44.788;10.366;2022-11-20T07:40:53;19.10;70.90
44477;DHT22;30180;44.788;10.366;2022-11-20T07:43:22;19.10;71.00
44477;DHT22;30180;44.788;10.366;2022-11-20T07:45:50;19.10;71.00
44477;DHT22;30180;44.788;10.366;2022-11-20T07:48:18;19.10;71.00
44477;DHT22;30180;44.788;10.366;2022-11-20T07:50:46;19.10;70.90
44477;DHT22;30180;44.788;10.366;2022-11-20T07:53:14;19.10;70.90
44477;DHT22;30180;44.788;10.366;2022-11-20T07:55:49;19.10;70.90
44477;DHT22;30180;44.788;10.366;2022-11-20T07:58:19;19.10;70.90
44477;DHT22;30180;44.788;10.366;2022-11-20T08:00:47;19.00;70.80
44477;DHT22;30180;44.788;10.366;2022-11-20T08:03:15;19.00;70.80
44477;DHT22;30180;44.788;10.366;2022-11-20T08:05:50;19.00;70.80
44477;DHT22;30180;44.788;10.366;2022-11-20T08:08:18;19.00;70.80
44477;DHT22;30180;44.788;10.366;2022-11-20T08:10:48;19.00;70.80
44477;DHT22;30180;44.788;10.366;2022-11-20T08:13:16;19.00;70.80
44477;DHT22;30180;44.788;10.366;2022-11-20T08:16:02;19.00;70.90
44477;DHT22;30180;44.788;10.366;2022-11-20T08:18:30;19.00;70.80
44477;DHT22;30180;44.788;10.366;2022-11-20T08:21:02;19.00;70.80
44477;DHT22;30180;44.788;10.366;2022-11-20T08:23:30;19.00;70.90
44477;DHT22;30180;44.788;10.366;2022-11-20T08:26:00;19.00;70.90
44477;DHT22;30180;44.788;10.366;2022-11-20T08:28:28;18.90;70.90
44477;DHT22;30180;44.788;10.366;2022-11-20T08:30:58;18.90;70.90
44477;DHT22;30180;44.788;10.366;2022-11-20T08:33:27;18.90;70.90
44477;DHT22;30180;44.788;10.366;2022-11-20T08:35:59;19.00;70.90
44477;DHT22;30180;44.788;10.366;2022-11-20T08:38:27;19.00;70.90
44477;DHT22;30180;44.788;10.366;2022-11-20T08:40:56;19.00;70.90
44477;DHT22;30180;44.788;10.366;2022-11-20T08:43:44;19.00;70.90
44477;DHT22;30180;44.788;10.366;2022-11-20T08:46:12;18.90;70.90
44477;DHT22;30180;44.788;10.366;2022-11-20T08:48:40;19.00;70.90
44477;DHT22;30180;44.788;10.366;2022-11-20T08:51:09;18.90;70.90
44477;DHT22;30180;44.788;10.366;2022-11-20T08:53:37;19.00;71.00
44477;DHT22;30180;44.788;10.366;2022-11-20T08:56:06;18.90;70.90
44477;DHT22;30180;44.788;10.366;2022-11-20T08:58:36;19.00;70.90
44477;DHT22;30180;44.788;10.366;2022-11-20T09:01:26;19.00;70.90
44477;DHT22;30180;44.788;10.366;2022-11-20T09:03:55;19.00;71.00
44477;DHT22;30180;44.788;10.366;2022-11-20T09:06:24;19.00;71.00
44477;DHT22;30180;44.788;10.366;2022-11-20T09:08:53;19.00;70.90
44477;DHT22;30180;44.788;10.366;2022-11-20T09:11:21;19.00;71.00
44477;DHT22;30180;44.788;10.366;2022-11-20T09:13:49;19.00;71.00
44477;DHT22;30180;44.788;10.366;2022-11-20T09:16:18;19.00;71.00
44477;DHT22;30180;44.788;10.366;2022-11-20T09:18:49;18.90;70.90
44477;DHT22;30180;44.788;10.366;2022-11-20T09:21:38;19.00;71.60
44477;DHT22;30180;44.788;10.366;2022-11-20T09:24:06;19.00;71.00
44477;DHT22;30180;44.788;10.366;2022-11-20T09:26:35;19.00;71.10
44477;DHT22;30180;44.788;10.366;2022-11-20T09:29:03;19.00;71.10
44477;DHT22;30180;44.788;10.366;2022-11-20T09:31:31;19.00;71.10
44477;DHT22;30180;44.788;10.366;2022-11-20T09:34:01;19.00;71.10
44477;DHT22;30180;44.788;10.366;2022-11-20T09:36:29;19.00;71.20
44477;DHT22;30180;44.788;10.366;2022-11-20T09:38:57;19.00;71.20
44477;DHT22;30180;44.788;10.366;2022-11-20T09:41:45;19.00;71.20
44477;DHT22;30180;44.788;10.366;2022-11-20T09:44:30;19.00;71.20
44477;DHT22;30180;44.788;10.366;2022-11-20T09:47:05;19.00;71.20
44477;DHT22;30180;44.788;10.366;2022-11-20T09:49:52;19.00;71.20
44477;DHT22;30180;44.788;10.366;2022-11-20T09:52:32;19.00;71.20
44477;DHT22;30180;44.788;10.366;2022-11-20T09:55:07;19.00;71.80
44477;DHT22;30180;44.788;10.366;2022-11-20T09:57:38;19.00;71.20
44477;DHT22;30180;44.788;10.366;2022-11-20T10:00:10;19.00;71.30
44477;DHT22;30180;44.788;10.366;2022-11-20T10:02:44;19.00;71.20
44477;DHT22;30180;44.788;10.366;2022-11-20T10:05:18;19.00;71.20
44477;DHT22;30180;44.788;10.366;2022-11-20T10:07:52;19.00;71.20
44477;DHT22;30180;44.788;10.366;2022-11-20T10:10:31;19.00;71.20
44477;DHT22;30180;44.788;10.366;2022-11-20T10:13:20;18.90;71.20
44477;DHT22;30180;44.788;10.366;2022-11-20T10:15:59;19.00;71.30
44477;DHT22;30180;44.788;10.366;2022-11-20T10:18:40;18.90;71.20
44477;DHT22;30180;44.788;10.366;2022-11-20T10:21:22;19.00;71.20
44477;DHT22;30180;44.788;10.366;2022-11-20T10:26:51;18.90;71.20
44477;DHT22;30180;44.788;10.366;2022-11-20T10:29:28;19.00;71.30
44477;DHT22;30180;44.788;10.366;2022-11-20T10:32:01;18.90;71.20
44477;DHT22;30180;44.788;10.366;2022-11-20T10:34:33;19.00;71.30
44477;DHT22;30180;44.788;10.366;2022-11-20T10:37:09;19.00;71.30
44477;DHT22;30180;44.788;10.366;2022-11-20T10:39:42;19.00;71.40
44477;DHT22;30180;44.788;10.366;2022-11-20T10:42:17;19.00;71.40
44477;DHT22;30180;44.788;10.366;2022-11-20T10:44:51;19.00;71.50
44477;DHT22;30180;44.788;10.366;2022-11-20T10:47:32;19.00;71.40
44477;DHT22;30180;44.788;10.366;2022-11-20T10:50:03;19.00;71.40
44477;DHT22;30180;44.788;10.366;2022-11-20T10:52:41;19.00;71.40
44477;DHT22;30180;44.788;10.366;2022-11-20T10:55:24;19.00;71.40
44477;DHT22;30180;44.788;10.366;2022-11-20T10:57:57;19.10;71.40
44477;DHT22;30180;44.788;10.366;2022-11-20T11:00:27;19.10;71.40
44477;DHT22;30180;44.788;10.366;2022-11-20T11:02:55;19.10;71.40
44477;DHT22;30180;44.788;10.366;2022-11-20T11:05:38;19.10;71.40
44477;DHT22;30180;44.788;10.366;2022-11-20T11:08:12;19.10;71.30
44477;DHT22;30180;44.788;10.366;2022-11-20T11:10:46;19.10;71.30
44477;DHT22;30180;44.788;10.366;2022-11-20T11:13:22;19.00;71.20
44477;DHT22;30180;44.788;10.366;2022-11-20T11:15:52;19.00;71.10
44477;DHT22;30180;44.788;10.366;2022-11-20T11:18:25;19.00;71.00
44477;DHT22;30180;44.788;10.366;2022-11-20T11:20:54;18.90;71.00
44477;DHT22;30180;44.788;10.366;2022-11-20T11:23:31;19.00;71.00
44477;DHT22;30180;44.788;10.366;2022-11-20T11:26:01;18.90;71.00
44477;DHT22;30180;44.788;10.366;2022-11-20T11:28:30;18.90;71.00
44477;DHT22;30180;44.788;10.366;2022-11-20T11:30:59;18.90;71.00
44477;DHT22;30180;44.788;10.366;2022-11-20T11:33:28;18.90;71.00
44477;DHT22;30180;44.788;10.366;2022-11-20T11:35:59;18.90;71.10
44477;DHT22;30180;44.788;10.366;2022-11-20T11:38:32;18.90;71.10
44477;DHT22;30180;44.788;10.366;2022-11-20T11:41:03;18.90;71.10
44477;DHT22;30180;44.788;10.366;2022-11-20T11:43:34;18.90;71.00
44477;DHT22;30180;44.788;10.366;2022-11-20T11:46:29;18.90;71.10
44477;DHT22;30180;44.788;10.366;2022-11-20T11:48:58;18.90;71.00
44477;DHT22;30180;44.788;10.366;2022-11-20T11:51:33;19.00;71.00
44477;DHT22;30180;44.788;10.366;2022-11-20T11:54:13;18.90;71.00
44477;DHT22;30180;44.788;10.366;2022-11-20T11:56:43;18.90;70.90
44477;DHT22;30180;44.788;10.366;2022-11-20T11:59:16;18.90;70.90
44477;DHT22;30180;44.788;10.366;2022-11-20T12:01:54;18.90;70.90
44477;DHT22;30180;44.788;10.366;2022-11-20T12:04:32;18.90;70.90
44477;DHT22;30180;44.788;10.366;2022-11-20T12:07:08;19.00;70.90
44477;DHT22;30180;44.788;10.366;2022-11-20T12:10:00;18.90;70.90
44477;DHT22;30180;44.788;10.366;2022-11-20T12:12:32;18.90;70.90
44477;DHT22;30180;44.788;10.366;2022-11-20T12:15:06;18.90;70.90
44477;DHT22;30180;44.788;10.366;2022-11-20T12:17:37;18.90;70.90
44477;DHT22;30180;44.788;10.366;2022-11-20T12:20:11;18.90;70.80
44477;DHT22;30180;44.788;10.366;2022-11-20T12:22:46;18.90;70.80
44477;DHT22;30180;44.788;10.366;2022-11-20T12:25:22;18.90;70.80
44477;DHT22;30180;44.788;10.366;2022-11-20T12:28:10;18.90;70.70
44477;DHT22;30180;44.788;10.366;2022-11-20T12:30:51;18.90;70.70
44477;DHT22;30180;44.788;10.366;2022-11-20T12:33:42;18.90;70.70
44477;DHT22;30180;44.788;10.366;2022-11-20T12:36:22;18.90;70.60
44477;DHT22;30180;44.788;10.366;2022-11-20T12:39:07;18.80;70.60
44477;DHT22;30180;44.788;10.366;2022-11-20T12:41:50;18.80;70.50
44477;DHT22;30180;44.788;10.366;2022-11-20T12:44:59;18.80;70.50
44477;DHT22;30180;44.788;10.366;2022-11-20T12:48:07;18.80;70.50
44477;DHT22;30180;44.788;10.366;2022-11-20T12:50:46;18.80;70.50
44477;DHT22;30180;44.788;10.366;2022-11-20T12:53:43;18.70;71.00
44477;DHT22;30180;44.788;10.366;2022-11-20T12:56:25;18.70;70.40
44477;DHT22;30180;44.788;10.366;2022-11-20T12:59:10;18.70;71.00
44477;DHT22;30180;44.788;10.366;2022-11-20T13:01:51;18.80;70.40
44477;DHT22;30180;44.788;10.366;2022-11-20T13:04:33;18.80;70.40
44477;DHT22;30180;44.788;10.366;2022-11-20T13:07:11;18.70;70.40
44477;DHT22;30180;44.788;10.366;2022-11-20T13:09:43;18.70;70.30
44477;DHT22;30180;44.788;10.366;2022-11-20T13:12:16;18.70;70.90
44477;DHT22;30180;44.788;10.366;2022-11-20T13:14:53;18.70;70.30
44477;DHT22;30180;44.788;10.366;2022-11-20T13:17:30;18.70;70.30
44477;DHT22;30180;44.788;10.366;2022-11-20T13:20:04;18.70;70.30
44477;DHT22;30180;44.788;10.366;2022-11-20T13:22:42;18.70;70.30
44477;DHT22;30180;44.788;10.366;2022-11-20T13:25:21;18.70;70.30
44477;DHT22;30180;44.788;10.366;2022-11-20T13:27:50;18.70;70.20
44477;DHT22;30180;44.788;10.366;2022-11-20T13:30:21;18.70;70.20
44477;DHT22;30180;44.788;10.366;2022-11-20T13:32:52;18.70;70.20
44477;DHT22;30180;44.788;10.366;2022-11-20T13:35:26;18.70;70.20
44477;DHT22;30180;44.788;10.366;2022-11-20T13:38:04;18.60;70.10
44477;DHT22;30180;44.788;10.366;2022-11-20T13:40:34;18.60;70.10
44477;DHT22;30180;44.788;10.366;2022-11-20T13:43:20;18.60;70.10
44477;DHT22;30180;44.788;10.366;2022-11-20T13:45:58;18.60;70.10
44477;DHT22;30180;44.788;10.366;2022-11-20T13:48:30;18.60;70.10
44477;DHT22;30180;44.788;10.366;2022-11-20T13:51:22;18.60;70.10
44477;DHT22;30180;44.788;10.366;2022-11-20T13:54:14;18.60;70.10
44477;DHT22;30180;44.788;10.366;2022-11-20T13:56:59;18.70;70.10
44477;DHT22;30180;44.788;10.366;2022-11-20T13:59:47;18.60;70.00
44477;DHT22;30180;44.788;10.366;2022-11-20T14:02:20;18.60;70.00
44477;DHT22;30180;44.788;10.366;2022-11-20T14:04:53;18.60;70.00
44477;DHT22;30180;44.788;10.366;2022-11-20T14:07:24;18.60;70.00
44477;DHT22;30180;44.788;10.366;2022-11-20T14:09:55;18.60;70.00
44477;DHT22;30180;44.788;10.366;2022-11-20T14:12:29;18.60;69.90
44477;DHT22;30180;44.788;10.366;2022-11-20T14:14:58;18.60;69.90
44477;DHT22;30180;44.788;10.366;2022-11-20T14:17:32;18.50;69.90
44477;DHT22;30180;44.788;10.366;2022-11-20T14:20:04;18.50;69.80
44477;DHT22;30180;44.788;10.366;2022-11-20T14:22:32;18.50;69.80
44477;DHT22;30180;44.788;10.366;2022-11-20T14:25:05;18.50;69.80
44477;DHT22;30180;44.788;10.366;2022-11-20T14:27:35;18.50;69.80
44477;DHT22;30180;44.788;10.366;2022-11-20T14:30:05;18.50;69.80
44477;DHT22;30180;44.788;10.366;2022-11-20T14:32:36;18.50;69.80
44477;DHT22;30180;44.788;10.366;2022-11-20T14:35:08;18.50;69.80
44477;DHT22;30180;44.788;10.366;2022-11-20T14:37:38;18.50;69.80
44477;DHT22;30180;44.788;10.366;2022-11-20T14:40:22;18.50;69.80
44477;DHT22;30180;44.788;10.366;2022-11-20T14:42:51;18.50;69.70
44477;DHT22;30180;44.788;10.366;2022-11-20T14:45:20;18.50;69.80
44477;DHT22;30180;44.788;10.366;2022-11-20T14:47:52;18.50;69.80
44477;DHT22;30180;44.788;10.366;2022-11-20T14:50:23;18.50;69.70
44477;DHT22;30180;44.788;10.366;2022-11-20T14:52:56;18.50;69.70
44477;DHT22;30180;44.788;10.366;2022-11-20T14:55:29;18.50;69.70
44477;DHT22;30180;44.788;10.366;2022-11-20T14:58:00;18.50;69.70
44477;DHT22;30180;44.788;10.366;2022-11-20T15:00:29;18.50;69.70
44477;DHT22;30180;44.788;10.366;2022-11-20T15:02:59;18.50;69.60
44477;DHT22;30180;44.788;10.366;2022-11-20T15:05:45;18.50;69.70
44477;DHT22;30180;44.788;10.366;2022-11-20T15:08:15;18.50;69.60
44477;DHT22;30180;44.788;10.366;2022-11-20T15:10:46;18.50;69.60
44477;DHT22;30180;44.788;10.366;2022-11-20T15:13:25;18.50;69.60
44477;DHT22;30180;44.788;10.366;2022-11-20T15:15:57;18.50;69.60
44477;DHT22;30180;44.788;10.366;2022-11-20T15:18:28;18.50;69.60
44477;DHT22;30180;44.788;10.366;2022-11-20T15:21:00;18.50;69.60
44477;DHT22;30180;44.788;10.366;2022-11-20T15:23:29;18.50;69.60
44477;DHT22;30180;44.788;10.366;2022-11-20T15:25:57;18.50;69.60
44477;DHT22;30180;44.788;10.366;2022-11-20T15:28:30;18.50;69.60
44477;DHT22;30180;44.788;10.366;2022-11-20T15:30:59;18.50;69.60
44477;DHT22;30180;44.788;10.366;2022-11-20T15:33:29;18.50;69.60
44477;DHT22;30180;44.788;10.366;2022-11-20T15:35:57;18.50;69.70
44477;DHT22;30180;44.788;10.366;2022-11-20T15:38:26;18.50;69.60
44477;DHT22;30180;44.788;10.366;2022-11-20T15:40:54;18.50;69.70
44477;DHT22;30180;44.788;10.366;2022-11-20T15:43:22;18.50;69.70
44477;DHT22;30180;44.788;10.366;2022-11-20T15:45:55;18.50;69.70
44477;DHT22;30180;44.788;10.366;2022-11-20T15:48:27;18.50;69.70